Time,TemperatureF,DewpointF,PressureIn,WindDirection,WindDirectionDegrees,WindSpeedMPH,WindSpeedGustMPH,Humidity,HourlyPrecipIn,Conditions,Clouds,dailyrainin,SoftwareType,DateUTC
2013-05-02 00:05:00,65.0,54.9,30.15,East,90,0.0,5.0,70,0.00,,,0.00,Weather View 32 v70,2013-05-02 04:05:00,
2013-05-02 00:10:00,65.0,55.7,30.15,East,90,0.0,5.0,72,0.00,,,0.00,Weather View 32 v70,2013-05-02 04:10:00,
2013-05-02 00:15:00,64.0,54.8,30.15,East,90,0.0,5.0,72,0.00,,,0.00,Weather View 32 v70,2013-05-02 04:15:00,
2013-05-02 00:20:00,64.0,55.5,30.16,East,90,0.0,5.0,74,0.00,,,0.00,Weather View 32 v70,2013-05-02 04:20:00,
2013-05-02 00:30:00,64.0,55.5,30.16,ENE,67,0.0,5.0,74,0.00,,,0.00,Weather View 32 v70,2013-05-02 04:30:00,
2013-05-02 00:40:00,64.0,55.5,30.17,East,90,0.0,5.0,74,0.00,,,0.00,Weather View 32 v70,2013-05-02 04:40:00,
2013-05-02 00:50:00,64.0,55.5,30.16,ENE,67,0.0,3.0,74,0.00,,,0.00,Weather View 32 v70,2013-05-02 04:50:00,
2013-05-02 00:55:00,64.0,55.1,30.16,East,90,0.0,4.0,73,0.00,,,0.00,Weather View 32 v70,2013-05-02 04:55:00,
2013-05-02 01:00:00,64.0,54.8,30.16,East,90,0.0,5.0,72,0.00,,,0.00,Weather View 32 v70,2013-05-02 05:00:00,
2013-05-02 01:05:00,64.0,55.1,30.16,ENE,67,0.0,5.0,73,0.00,,,0.00,Weather View 32 v70,2013-05-02 05:05:00,
2013-05-02 01:15:00,64.0,55.5,30.17,East,90,2.0,5.0,74,0.00,,,0.00,Weather View 32 v70,2013-05-02 05:15:00,
2013-05-02 01:21:00,63.0,54.6,30.17,NE,45,0.0,6.0,74,0.00,,,0.00,Weather View 32 v70,2013-05-02 05:21:00,
2013-05-02 01:30:00,63.0,54.6,30.17,East,90,0.0,7.0,74,0.00,,,0.00,Weather View 32 v70,2013-05-02 05:30:00,
2013-05-02 01:35:00,63.0,54.6,30.17,ESE,112,0.0,7.0,74,0.00,,,0.00,Weather View 32 v70,2013-05-02 05:35:00,
2013-05-02 01:45:00,62.0,54.3,30.18,East,90,0.0,7.0,76,0.00,,,0.00,Weather View 32 v70,2013-05-02 05:45:00,
2013-05-02 01:55:00,62.0,54.7,30.17,East,90,0.0,7.0,77,0.00,,,0.00,Weather View 32 v70,2013-05-02 05:55:00,
2013-05-02 02:00:00,62.0,55.0,30.17,East,90,0.0,7.0,78,0.00,,,0.00,Weather View 32 v70,2013-05-02 06:00:00,
2013-05-02 02:10:00,61.0,54.4,30.17,East,90,0.0,7.0,79,0.00,,,0.00,Weather View 32 v70,2013-05-02 06:10:00,
2013-05-02 02:20:00,61.0,55.1,30.16,East,90,0.0,7.0,81,0.00,,,0.00,Weather View 32 v70,2013-05-02 06:20:00,
2013-05-02 02:30:00,61.0,55.1,30.17,East,90,0.0,6.0,81,0.00,,,0.00,Weather View 32 v70,2013-05-02 06:30:00,
2013-05-02 02:40:00,61.0,55.5,30.17,East,90,0.0,4.0,82,0.00,,,0.00,Weather View 32 v70,2013-05-02 06:40:00,
2013-05-02 02:50:00,60.0,55.1,30.16,East,90,0.0,4.0,84,0.00,,,0.00,Weather View 32 v70,2013-05-02 06:50:00,
2013-05-02 03:00:00,59.0,54.8,30.16,East,90,0.0,4.0,86,0.00,,,0.00,Weather View 32 v70,2013-05-02 07:00:00,
2013-05-02 03:10:00,59.0,55.4,30.16,ENE,67,0.0,4.0,88,0.00,,,0.00,Weather View 32 v70,2013-05-02 07:10:00,
2013-05-02 03:15:00,59.0,55.1,30.16,East,90,0.0,4.0,87,0.00,,,0.00,Weather View 32 v70,2013-05-02 07:15:00,
2013-05-02 03:22:00,59.0,55.1,30.16,East,90,0.0,4.0,87,0.00,,,0.00,Weather View 32 v70,2013-05-02 07:22:00,
2013-05-02 03:30:00,60.0,56.1,30.16,East,90,3.0,3.0,87,0.00,,,0.00,Weather View 32 v70,2013-05-02 07:30:00,
2013-05-02 03:40:00,60.0,56.1,30.16,East,90,0.0,4.0,87,0.00,,,0.00,Weather View 32 v70,2013-05-02 07:40:00,
2013-05-02 03:45:00,59.0,55.4,30.16,East,90,0.0,4.0,88,0.00,,,0.00,Weather View 32 v70,2013-05-02 07:45:00,
2013-05-02 03:55:00,59.0,55.8,30.16,East,90,0.0,4.0,89,0.00,,,0.00,Weather View 32 v70,2013-05-02 07:55:00,
2013-05-02 04:05:00,58.0,54.8,30.16,East,90,0.0,4.0,89,0.00,,,0.00,Weather View 32 v70,2013-05-02 08:05:00,
2013-05-02 04:15:00,58.0,55.4,30.16,NE,45,0.0,4.0,91,0.00,,,0.00,Weather View 32 v70,2013-05-02 08:15:00,
2013-05-02 04:20:00,58.0,55.7,30.16,NE,45,0.0,4.0,92,0.00,,,0.00,Weather View 32 v70,2013-05-02 08:20:00,
2013-05-02 04:30:00,58.0,56.0,30.16,NE,45,0.0,4.0,93,0.00,,,0.00,Weather View 32 v70,2013-05-02 08:30:00,
2013-05-02 04:40:00,58.0,56.3,30.16,NE,45,0.0,0.0,94,0.00,,,0.00,Weather View 32 v70,2013-05-02 08:40:00,
2013-05-02 04:50:00,58.0,56.6,30.17,NE,45,0.0,0.0,95,0.00,,,0.00,Weather View 32 v70,2013-05-02 08:50:00,
2013-05-02 05:00:00,57.0,55.9,30.18,NE,45,0.0,0.0,96,0.00,,,0.00,Weather View 32 v70,2013-05-02 09:00:00,
2013-05-02 05:10:00,57.0,56.4,30.18,NE,45,0.0,0.0,98,0.00,,,0.00,Weather View 32 v70,2013-05-02 09:10:00,
2013-05-02 05:20:00,57.0,56.7,30.18,NE,45,0.0,0.0,99,0.00,,,0.00,Weather View 32 v70,2013-05-02 09:20:00,
2013-05-02 05:30:00,56.0,56.0,30.18,NE,45,0.0,0.0,100,0.00,,,0.00,Weather View 32 v70,2013-05-02 09:30:00,
2013-05-02 05:40:00,56.0,56.0,30.18,NE,45,0.0,0.0,100,0.00,,,0.00,Weather View 32 v70,2013-05-02 09:40:00,
2013-05-02 05:45:00,56.0,56.0,30.18,NE,45,2.0,3.0,100,0.00,,,0.00,Weather View 32 v70,2013-05-02 09:45:00,
2013-05-02 05:55:00,56.0,56.0,30.18,NE,45,0.0,3.0,100,0.00,,,0.00,Weather View 32 v70,2013-05-02 09:55:00,
2013-05-02 06:05:00,56.0,56.0,30.18,NE,45,0.0,3.0,100,0.00,,,0.00,Weather View 32 v70,2013-05-02 10:05:00,
2013-05-02 06:15:00,56.0,56.0,30.18,NE,45,0.0,3.0,100,0.00,,,0.00,Weather View 32 v70,2013-05-02 10:15:00,
2013-05-02 06:24:00,56.0,56.0,30.19,NE,45,0.0,3.0,100,0.00,,,0.00,Weather View 32 v70,2013-05-02 10:24:00,
2013-05-02 06:30:00,55.0,55.0,30.19,NE,45,0.0,4.0,100,0.00,,,0.00,Weather View 32 v70,2013-05-02 10:30:00,
2013-05-02 06:35:00,55.0,55.0,30.19,ENE,67,0.0,4.0,100,0.00,,,0.00,Weather View 32 v70,2013-05-02 10:35:00,
2013-05-02 06:45:00,55.0,55.0,30.19,NE,45,0.0,4.0,100,0.00,,,0.00,Weather View 32 v70,2013-05-02 10:45:00,
2013-05-02 06:50:00,55.0,55.0,30.19,NE,45,0.0,4.0,100,0.00,,,0.00,Weather View 32 v70,2013-05-02 10:50:00,
2013-05-02 07:00:00,55.0,55.0,30.18,ENE,67,0.0,4.0,100,0.00,,,0.00,Weather View 32 v70,2013-05-02 11:00:00,
2013-05-02 07:10:00,55.0,55.0,30.19,ENE,67,0.0,4.0,100,0.00,,,0.00,Weather View 32 v70,2013-05-02 11:10:00,
2013-05-02 07:20:00,55.0,55.0,30.20,ENE,67,0.0,4.0,100,0.00,,,0.00,Weather View 32 v70,2013-05-02 11:20:00,
2013-05-02 07:30:00,56.0,56.0,30.19,NE,45,0.0,4.0,100,0.00,,,0.00,Weather View 32 v70,2013-05-02 11:30:00,
2013-05-02 07:35:00,56.0,56.0,30.19,East,90,0.0,4.0,100,0.00,,,0.00,Weather View 32 v70,2013-05-02 11:35:00,
2013-05-02 07:45:00,56.0,56.0,30.20,ENE,67,0.0,3.0,100,0.00,,,0.00,Weather View 32 v70,2013-05-02 11:45:00,
2013-05-02 07:50:00,56.0,56.0,30.20,ENE,67,0.0,3.0,100,0.00,,,0.00,Weather View 32 v70,2013-05-02 11:50:00,
2013-05-02 08:00:00,57.0,57.0,30.19,East,90,0.0,3.0,100,0.00,,,0.00,Weather View 32 v70,2013-05-02 12:00:00,
2013-05-02 08:10:00,58.0,58.0,30.20,ENE,67,0.0,3.0,100,0.00,,,0.00,Weather View 32 v70,2013-05-02 12:10:00,
2013-05-02 08:15:00,59.0,59.0,30.20,East,90,0.0,3.0,100,0.00,,,0.00,Weather View 32 v70,2013-05-02 12:15:00,
2013-05-02 08:25:00,59.0,58.7,30.20,East,90,2.0,6.0,99,0.00,,,0.00,Weather View 32 v70,2013-05-02 12:25:00,
2013-05-02 08:35:00,59.0,58.7,30.20,East,90,0.0,6.0,99,0.00,,,0.00,Weather View 32 v70,2013-05-02 12:35:00,
2013-05-02 08:45:00,60.0,59.4,30.20,East,90,0.0,6.0,98,0.00,,,0.00,Weather View 32 v70,2013-05-02 12:45:00,
2013-05-02 08:55:00,60.0,60.0,30.20,East,90,0.0,6.0,100,0.00,,,0.00,Weather View 32 v70,2013-05-02 12:55:00,
2013-05-02 09:05:00,62.0,58.1,30.20,ENE,67,5.0,7.0,87,0.00,,,0.00,Weather View 32 v70,2013-05-02 13:05:00,
2013-05-02 09:10:00,63.0,60.9,30.20,East,90,3.0,7.0,93,0.00,,,0.00,Weather View 32 v70,2013-05-02 13:10:00,
2013-05-02 09:20:00,63.0,57.7,30.20,East,90,8.0,8.0,83,0.00,,,0.00,Weather View 32 v70,2013-05-02 13:20:00,
2013-05-02 09:25:00,62.0,57.4,30.20,East,90,6.0,9.0,85,0.00,,,0.00,Weather View 32 v70,2013-05-02 13:25:00,
2013-05-02 09:35:00,62.0,58.1,30.20,East,90,0.0,10.0,87,0.00,,,0.00,Weather View 32 v70,2013-05-02 13:35:00,
2013-05-02 09:40:00,62.0,58.7,30.20,East,90,3.0,10.0,89,0.00,,,0.00,Weather View 32 v70,2013-05-02 13:40:00,
2013-05-02 09:45:00,62.0,59.6,30.20,East,90,0.0,10.0,92,0.00,,,0.00,Weather View 32 v70,2013-05-02 13:45:00,
2013-05-02 09:55:00,61.0,59.3,30.20,East,90,0.0,10.0,94,0.00,,,0.00,Weather View 32 v70,2013-05-02 13:55:00,
2013-05-02 10:05:00,62.0,58.7,30.20,SW,225,3.0,10.0,89,0.00,,,0.00,Weather View 32 v70,2013-05-02 14:05:00,
2013-05-02 10:15:00,62.0,58.4,30.20,East,90,4.0,10.0,88,0.00,,,0.00,Weather View 32 v70,2013-05-02 14:15:00,
2013-05-02 10:20:00,62.0,58.1,30.20,East,90,5.0,10.0,87,0.00,,,0.00,Weather View 32 v70,2013-05-02 14:20:00,
2013-05-02 10:25:00,62.0,58.1,30.20,East,90,3.0,10.0,87,0.00,,,0.00,Weather View 32 v70,2013-05-02 14:25:00,
2013-05-02 10:35:00,63.0,59.1,30.20,East,90,5.0,9.0,87,0.00,,,0.00,Weather View 32 v70,2013-05-02 14:35:00,
2013-05-02 10:45:00,64.0,59.4,30.20,East,90,5.0,9.0,85,0.00,,,0.00,Weather View 32 v70,2013-05-02 14:45:00,
2013-05-02 10:55:00,65.0,60.4,30.20,East,90,7.0,9.0,85,0.00,,,0.00,Weather View 32 v70,2013-05-02 14:55:00,
2013-05-02 11:00:00,65.0,61.0,30.20,East,90,3.0,9.0,87,0.00,,,0.00,Weather View 32 v70,2013-05-02 15:00:00,
2013-05-02 11:10:00,67.0,62.7,30.19,East,90,0.0,9.0,86,0.00,,,0.00,Weather View 32 v70,2013-05-02 15:10:00,
2013-05-02 11:20:00,67.0,58.8,30.18,East,90,1.0,9.0,75,0.00,,,0.00,Weather View 32 v70,2013-05-02 15:20:00,
2013-05-02 11:27:00,68.0,62.6,30.18,East,90,4.0,9.0,83,0.00,,,0.00,Weather View 32 v70,2013-05-02 15:27:00,
2013-05-02 11:35:00,69.0,58.8,30.18,SW,225,6.0,11.0,70,0.00,,,0.00,Weather View 32 v70,2013-05-02 15:35:00,
2013-05-02 11:45:00,71.0,59.0,30.17,East,90,0.0,12.0,66,0.00,,,0.00,Weather View 32 v70,2013-05-02 15:45:00,
2013-05-02 11:55:00,70.0,58.5,30.17,East,90,2.0,12.0,67,0.00,,,0.00,Weather View 32 v70,2013-05-02 15:55:00,
2013-05-02 12:05:00,69.0,58.0,30.17,East,90,6.0,12.0,68,0.00,,,0.00,Weather View 32 v70,2013-05-02 16:05:00,
2013-05-02 12:15:00,70.0,58.1,30.18,East,90,6.0,12.0,66,0.00,,,0.00,Weather View 32 v70,2013-05-02 16:15:00,
2013-05-02 12:20:00,70.0,58.1,30.18,East,90,6.0,12.0,66,0.00,,,0.00,Weather View 32 v70,2013-05-02 16:20:00,
2013-05-02 12:27:00,70.0,57.2,30.18,East,90,4.0,12.0,64,0.00,,,0.00,Weather View 32 v70,2013-05-02 16:27:00,
2013-05-02 12:35:00,71.0,59.0,30.18,East,90,6.0,12.0,66,0.00,,,0.00,Weather View 32 v70,2013-05-02 16:35:00,
2013-05-02 12:40:00,71.0,58.2,30.17,East,90,0.0,11.0,64,0.00,,,0.00,Weather View 32 v70,2013-05-02 16:40:00,
2013-05-02 12:50:00,73.0,61.4,30.16,West,270,7.0,10.0,67,0.00,,,0.00,Weather View 32 v70,2013-05-02 16:50:00,
2013-05-02 13:00:00,72.0,57.3,30.15,South,180,5.0,10.0,60,0.00,,,0.00,Weather View 32 v70,2013-05-02 17:00:00,
2013-05-02 13:10:00,72.0,56.8,30.15,South,180,13.0,13.0,59,0.00,,,0.00,Weather View 32 v70,2013-05-02 17:10:00,
2013-05-02 13:20:00,72.0,59.6,30.15,SE,135,3.0,14.0,65,0.00,,,0.00,Weather View 32 v70,2013-05-02 17:20:00,
2013-05-02 13:28:00,72.0,57.3,30.15,South,180,8.0,14.0,60,0.00,,,0.00,Weather View 32 v70,2013-05-02 17:28:00,
2013-05-02 13:35:00,72.0,56.8,30.15,SW,225,9.0,14.0,59,0.00,,,0.00,Weather View 32 v70,2013-05-02 17:35:00,
2013-05-02 13:40:00,71.0,55.4,30.15,South,180,6.0,14.0,58,0.00,,,0.00,Weather View 32 v70,2013-05-02 17:40:00,
2013-05-02 13:45:00,71.0,57.7,30.15,South,180,7.0,14.0,63,0.00,,,0.00,Weather View 32 v70,2013-05-02 17:45:00,
2013-05-02 13:55:00,71.0,56.8,30.14,SE,135,3.0,14.0,61,0.00,,,0.00,Weather View 32 v70,2013-05-02 17:55:00,
2013-05-02 14:05:00,73.0,57.3,30.14,WSW,247,5.0,14.0,58,0.00,,,0.00,Weather View 32 v70,2013-05-02 18:05:00,
2013-05-02 14:15:00,73.0,58.7,30.14,South,180,5.0,14.0,61,0.00,,,0.00,Weather View 32 v70,2013-05-02 18:15:00,
2013-05-02 14:20:00,72.0,56.8,30.14,SSE,157,0.0,12.0,59,0.00,,,0.00,Weather View 32 v70,2013-05-02 18:20:00,
2013-05-02 14:28:00,72.0,56.4,30.14,South,180,4.0,12.0,58,0.00,,,0.00,Weather View 32 v70,2013-05-02 18:28:00,
2013-05-02 14:35:00,72.0,56.8,30.14,SE,135,9.0,12.0,59,0.00,,,0.00,Weather View 32 v70,2013-05-02 18:35:00,
2013-05-02 14:40:00,72.0,58.7,30.14,SE,135,4.0,12.0,63,0.00,,,0.00,Weather View 32 v70,2013-05-02 18:40:00,
2013-05-02 14:50:00,73.0,56.8,30.14,SW,225,4.0,11.0,57,0.00,,,0.00,Weather View 32 v70,2013-05-02 18:50:00,
2013-05-02 15:00:00,73.0,57.8,30.14,SE,135,5.0,11.0,59,0.00,,,0.00,Weather View 32 v70,2013-05-02 19:00:00,
2013-05-02 15:10:00,73.0,55.8,30.13,SSE,157,4.0,11.0,55,0.00,,,0.00,Weather View 32 v70,2013-05-02 19:10:00,
2013-05-02 15:20:00,73.0,55.8,30.13,SSW,202,0.0,11.0,55,0.00,,,0.00,Weather View 32 v70,2013-05-02 19:20:00,
2013-05-02 15:29:00,74.0,58.2,30.13,SE,135,3.0,11.0,58,0.00,,,0.00,Weather View 32 v70,2013-05-02 19:29:00,
2013-05-02 15:35:00,73.0,57.3,30.12,East,90,7.0,11.0,58,0.00,,,0.00,Weather View 32 v70,2013-05-02 19:35:00,
2013-05-02 15:40:00,73.0,57.3,30.11,South,180,5.0,11.0,58,0.00,,,0.00,Weather View 32 v70,2013-05-02 19:40:00,
2013-05-02 15:50:00,74.0,55.7,30.11,SW,225,0.0,11.0,53,0.00,,,0.00,Weather View 32 v70,2013-05-02 19:50:00,
2013-05-02 15:55:00,74.0,57.3,30.11,NE,45,4.0,11.0,56,0.00,,,0.00,Weather View 32 v70,2013-05-02 19:55:00,
2013-05-02 16:05:00,74.0,54.7,30.10,South,180,6.0,11.0,51,0.00,,,0.00,Weather View 32 v70,2013-05-02 20:05:00,
2013-05-02 16:10:00,74.0,58.2,30.10,South,180,4.0,10.0,58,0.00,,,0.00,Weather View 32 v70,2013-05-02 20:10:00,
2013-05-02 16:15:00,74.0,56.8,30.10,SSE,157,5.0,10.0,55,0.00,,,0.00,Weather View 32 v70,2013-05-02 20:15:00,
2013-05-02 16:25:00,74.0,54.7,30.10,SE,135,0.0,10.0,51,0.00,,,0.00,Weather View 32 v70,2013-05-02 20:25:00,
2013-05-02 16:35:00,75.0,55.6,30.10,SE,135,4.0,10.0,51,0.00,,,0.00,Weather View 32 v70,2013-05-02 20:35:00,
2013-05-02 16:45:00,75.0,55.0,30.09,SW,225,5.0,12.0,50,0.00,,,0.00,Weather View 32 v70,2013-05-02 20:45:00,
2013-05-02 16:55:00,76.0,57.6,30.09,SW,225,3.0,12.0,53,0.00,,,0.00,Weather View 32 v70,2013-05-02 20:55:00,
2013-05-02 17:05:00,74.0,56.8,30.08,East,90,10.0,12.0,55,0.00,,,0.00,Weather View 32 v70,2013-05-02 21:05:00,
2013-05-02 17:15:00,74.0,55.2,30.08,East,90,5.0,12.0,52,0.00,,,0.00,Weather View 32 v70,2013-05-02 21:15:00,
2013-05-02 17:25:00,74.0,55.7,30.08,East,90,5.0,12.0,53,0.00,,,0.00,Weather View 32 v70,2013-05-02 21:25:00,
2013-05-02 17:30:00,74.0,55.2,30.08,East,90,5.0,12.0,52,0.00,,,0.00,Weather View 32 v70,2013-05-02 21:30:00,
2013-05-02 17:40:00,74.0,55.2,30.08,East,90,3.0,12.0,52,0.00,,,0.00,Weather View 32 v70,2013-05-02 21:40:00,
2013-05-02 17:50:00,73.0,54.8,30.09,East,90,8.0,12.0,53,0.00,,,0.00,Weather View 32 v70,2013-05-02 21:50:00,
2013-05-02 18:00:00,73.0,54.3,30.08,East,90,7.0,12.0,52,0.00,,,0.00,Weather View 32 v70,2013-05-02 22:00:00,
2013-05-02 18:10:00,73.0,55.8,30.08,East,90,7.0,12.0,55,0.00,,,0.00,Weather View 32 v70,2013-05-02 22:10:00,
2013-05-02 18:20:00,73.0,57.8,30.08,East,90,0.0,11.0,59,0.00,,,0.00,Weather View 32 v70,2013-05-02 22:20:00,
2013-05-02 18:30:00,73.0,57.3,30.08,SE,135,1.0,11.0,58,0.00,,,0.00,Weather View 32 v70,2013-05-02 22:30:00,
2013-05-02 18:40:00,73.0,57.3,30.08,SE,135,0.0,10.0,58,0.00,,,0.00,Weather View 32 v70,2013-05-02 22:40:00,
2013-05-02 18:50:00,73.0,55.3,30.07,SE,135,3.0,10.0,54,0.00,,,0.00,Weather View 32 v70,2013-05-02 22:50:00,
2013-05-02 19:00:00,73.0,56.8,30.07,South,180,6.0,10.0,57,0.00,,,0.00,Weather View 32 v70,2013-05-02 23:00:00,
2013-05-02 19:05:00,73.0,56.3,30.07,South,180,0.0,10.0,56,0.00,,,0.00,Weather View 32 v70,2013-05-02 23:05:00,
2013-05-02 19:15:00,72.0,56.8,30.07,ESE,112,0.0,10.0,59,0.00,,,0.00,Weather View 32 v70,2013-05-02 23:15:00,
2013-05-02 19:25:00,71.0,55.9,30.07,SE,135,0.0,8.0,59,0.00,,,0.00,Weather View 32 v70,2013-05-02 23:25:00,
2013-05-02 19:31:00,71.0,56.4,30.07,SE,135,0.0,8.0,60,0.00,,,0.00,Weather View 32 v70,2013-05-02 23:31:00,
2013-05-02 19:40:00,70.0,55.4,30.08,SE,135,0.0,7.0,60,0.00,,,0.00,Weather View 32 v70,2013-05-02 23:40:00,
2013-05-02 19:45:00,70.0,55.4,30.08,SE,135,0.0,7.0,60,0.00,,,0.00,Weather View 32 v70,2013-05-02 23:45:00,
2013-05-02 19:55:00,69.0,55.0,30.08,ENE,67,0.0,7.0,61,0.00,,,0.00,Weather View 32 v70,2013-05-02 23:55:00,
2013-05-02 20:00:00,69.0,55.0,30.08,ENE,67,0.0,7.0,61,0.00,,,0.00,Weather View 32 v70,2013-05-03 00:00:00,
2013-05-02 20:10:00,69.0,55.0,30.08,ENE,67,0.0,7.0,61,0.00,,,0.00,Weather View 32 v70,2013-05-03 00:10:00,
2013-05-02 20:20:00,68.0,54.5,30.08,ENE,67,0.0,4.0,62,0.00,,,0.00,Weather View 32 v70,2013-05-03 00:20:00,
2013-05-02 20:30:00,68.0,54.9,30.08,ENE,67,0.0,4.0,63,0.00,,,0.00,Weather View 32 v70,2013-05-03 00:30:00,
2013-05-02 20:40:00,67.0,54.4,30.08,ENE,67,0.0,0.0,64,0.00,,,0.00,Weather View 32 v70,2013-05-03 00:40:00,
2013-05-02 20:50:00,67.0,54.4,30.08,ENE,67,0.0,0.0,64,0.00,,,0.00,Weather View 32 v70,2013-05-03 00:50:00,
2013-05-02 21:00:00,67.0,54.8,30.08,ENE,67,0.0,0.0,65,0.00,,,0.00,Weather View 32 v70,2013-05-03 01:00:00,
2013-05-02 21:10:00,67.0,54.8,30.09,ENE,67,0.0,0.0,65,0.00,,,0.00,Weather View 32 v70,2013-05-03 01:10:00,
2013-05-02 21:15:00,67.0,55.2,30.09,ENE,67,0.0,0.0,66,0.00,,,0.00,Weather View 32 v70,2013-05-03 01:15:00,
2013-05-02 21:25:00,67.0,55.6,30.09,ENE,67,0.0,0.0,67,0.00,,,0.00,Weather View 32 v70,2013-05-03 01:25:00,
2013-05-02 21:32:00,67.0,55.6,30.09,NE,45,0.0,0.0,67,0.00,,,0.00,Weather View 32 v70,2013-05-03 01:32:00,
2013-05-02 21:40:00,67.0,55.6,30.10,NE,45,0.0,3.0,67,0.00,,,0.00,Weather View 32 v70,2013-05-03 01:40:00,
2013-05-02 21:50:00,67.0,56.5,30.10,NE,45,0.0,3.0,69,0.00,,,0.00,Weather View 32 v70,2013-05-03 01:50:00,
2013-05-02 22:00:00,66.0,55.5,30.10,NE,45,0.0,3.0,69,0.00,,,0.00,Weather View 32 v70,2013-05-03 02:00:00,
2013-05-02 22:10:00,66.0,55.9,30.10,NNE,22,0.0,3.0,70,0.00,,,0.00,Weather View 32 v70,2013-05-03 02:10:00,
2013-05-02 22:20:00,66.0,55.9,30.10,NNE,22,0.0,3.0,70,0.00,,,0.00,Weather View 32 v70,2013-05-03 02:20:00,
2013-05-02 22:30:00,65.0,54.9,30.09,NNE,22,0.0,3.0,70,0.00,,,0.00,Weather View 32 v70,2013-05-03 02:30:00,
2013-05-02 22:40:00,65.0,55.3,30.09,NE,45,0.0,3.0,71,0.00,,,0.00,Weather View 32 v70,2013-05-03 02:40:00,
2013-05-02 22:50:00,65.0,55.7,30.09,NE,45,0.0,3.0,72,0.00,,,0.00,Weather View 32 v70,2013-05-03 02:50:00,
2013-05-02 22:55:00,65.0,55.7,30.09,NE,45,0.0,0.0,72,0.00,,,0.00,Weather View 32 v70,2013-05-03 02:55:00,
2013-05-02 23:05:00,65.0,56.5,30.09,NE,45,0.0,0.0,74,0.00,,,0.00,Weather View 32 v70,2013-05-03 03:05:00,
2013-05-02 23:10:00,65.0,57.2,30.09,NE,45,0.0,0.0,76,0.00,,,0.00,Weather View 32 v70,2013-05-03 03:10:00,
2013-05-02 23:20:00,65.0,57.6,30.09,NE,45,0.0,0.0,77,0.00,,,0.00,Weather View 32 v70,2013-05-03 03:20:00,
2013-05-02 23:25:00,65.0,58.0,30.09,NE,45,0.0,0.0,78,0.00,,,0.00,Weather View 32 v70,2013-05-03 03:25:00,
2013-05-02 23:34:00,64.0,57.3,30.09,NE,45,0.0,0.0,79,0.00,,,0.00,Weather View 32 v70,2013-05-03 03:34:00,
2013-05-02 23:40:00,64.0,58.0,30.09,NE,45,0.0,0.0,81,0.00,,,0.00,Weather View 32 v70,2013-05-03 03:40:00,
2013-05-02 23:45:00,64.0,58.4,30.09,NE,45,0.0,4.0,82,0.00,,,0.00,Weather View 32 v70,2013-05-03 03:45:00,
2013-05-02 23:50:00,64.0,58.7,30.09,NE,45,2.0,4.0,83,0.00,,,0.00,Weather View 32 v70,2013-05-03 03:50:00,